sensor_id;sensor_type;location;lat;lon;timestamp;temperature;humidity
19389;DHT22;9830;41.876;23.474;2023-05-10T00:01:48;8.90;99.90
19389;DHT22;9830;41.876;23.474;2023-05-10T00:04:13;9.00;99.90
19389;DHT22;9830;41.876;23.474;2023-05-10T00:06:39;8.90;99.90
19389;DHT22;9830;41.876;23.474;2023-05-10T00:09:05;8.90;99.90
19389;DHT22;9830;41.876;23.474;2023-05-10T00:11:31;8.90;99.90
19389;DHT22;9830;41.876;23.474;2023-05-10T00:13:57;9.00;99.90
19389;DHT22;9830;41.876;23.474;2023-05-10T00:16:22;9.00;99.90
19389;DHT22;9830;41.876;23.474;2023-05-10T00:18:48;8.90;99.90
19389;DHT22;9830;41.876;23.474;2023-05-10T00:21:14;8.90;99.90
19389;DHT22;9830;41.876;23.474;2023-05-10T00:23:40;8.90;99.90
19389;DHT22;9830;41.876;23.474;2023-05-10T00:26:05;8.90;99.90
19389;DHT22;9830;41.876;23.474;2023-05-10T00:28:31;8.90;99.90
19389;DHT22;9830;41.876;23.474;2023-05-10T00:30:56;8.90;99.90
19389;DHT22;9830;41.876;23.474;2023-05-10T00:33:22;8.90;99.90
19389;DHT22;9830;41.876;23.474;2023-05-10T00:35:48;8.90;99.90
19389;DHT22;9830;41.876;23.474;2023-05-10T00:38:13;8.80;99.90
19389;DHT22;9830;41.876;23.474;2023-05-10T00:40:39;8.80;99.90
19389;DHT22;9830;41.876;23.474;2023-05-10T00:43:05;8.70;99.90
19389;DHT22;9830;41.876;23.474;2023-05-10T00:45:33;8.80;99.90
19389;DHT22;9830;41.876;23.474;2023-05-10T00:48:01;8.70;99.90
19389;DHT22;9830;41.876;23.474;2023-05-10T00:50:28;8.70;99.90
19389;DHT22;9830;41.876;23.474;2023-05-10T00:52:54;8.70;99.90
19389;DHT22;9830;41.876;23.474;2023-05-10T00:55:20;8.70;99.90
19389;DHT22;9830;41.876;23.474;2023-05-10T00:57:47;8.80;99.90
19389;DHT22;9830;41.876;23.474;2023-05-10T01:00:13;8.80;99.90
19389;DHT22;9830;41.876;23.474;2023-05-10T01:02:46;8.80;99.90
19389;DHT22;9830;41.876;23.474;2023-05-10T01:05:12;8.80;99.90
19389;DHT22;9830;41.876;23.474;2023-05-10T01:07:38;8.70;99.90
19389;DHT22;9830;41.876;23.474;2023-05-10T01:10:06;8.70;99.90
19389;DHT22;9830;41.876;23.474;2023-05-10T01:12:32;8.70;99.90
19389;DHT22;9830;41.876;23.474;2023-05-10T01:15:00;8.70;99.90
19389;DHT22;9830;41.876;23.474;2023-05-10T01:17:27;8.80;99.90
19389;DHT22;9830;41.876;23.474;2023-05-10T01:19:53;8.70;99.90
19389;DHT22;9830;41.876;23.474;2023-05-10T01:33:56;8.70;99.90
19389;DHT22;9830;41.876;23.474;2023-05-10T01:36:48;8.70;99.90
19389;DHT22;9830;41.876;23.474;2023-05-10T01:39:25;8.60;99.90
19389;DHT22;9830;41.876;23.474;2023-05-10T01:42:08;8.70;99.90
19389;DHT22;9830;41.876;23.474;2023-05-10T01:45:00;8.70;99.90
19389;DHT22;9830;41.876;23.474;2023-05-10T01:47:31;8.60;99.90
19389;DHT22;9830;41.876;23.474;2023-05-10T01:50:02;8.70;99.90
19389;DHT22;9830;41.876;23.474;2023-05-10T01:52:33;8.70;99.90
19389;DHT22;9830;41.876;23.474;2023-05-10T01:55:05;8.70;99.90
19389;DHT22;9830;41.876;23.474;2023-05-10T01:57:36;8.70;99.90
19389;DHT22;9830;41.876;23.474;2023-05-10T02:00:06;8.70;99.90
19389;DHT22;9830;41.876;23.474;2023-05-10T02:02:36;8.60;99.90
19389;DHT22;9830;41.876;23.474;2023-05-10T02:05:05;8.50;99.90
19389;DHT22;9830;41.876;23.474;2023-05-10T02:07:33;8.50;99.90
19389;DHT22;9830;41.876;23.474;2023-05-10T02:10:02;8.50;99.90
19389;DHT22;9830;41.876;23.474;2023-05-10T02:12:28;8.50;99.90
19389;DHT22;9830;41.876;23.474;2023-05-10T02:14:55;8.50;99.90
19389;DHT22;9830;41.876;23.474;2023-05-10T02:17:23;8.60;99.90
19389;DHT22;9830;41.876;23.474;2023-05-10T02:19:51;8.60;99.90
19389;DHT22;9830;41.876;23.474;2023-05-10T02:22:18;8.50;99.90
19389;DHT22;9830;41.876;23.474;2023-05-10T02:24:45;8.50;99.90
19389;DHT22;9830;41.876;23.474;2023-05-10T02:27:12;8.50;99.90
19389;DHT22;9830;41.876;23.474;2023-05-10T02:29:40;8.50;99.90
19389;DHT22;9830;41.876;23.474;2023-05-10T02:32:06;8.40;99.90
19389;DHT22;9830;41.876;23.474;2023-05-10T02:34:32;8.40;99.90
19389;DHT22;9830;41.876;23.474;2023-05-10T02:36:59;8.40;99.90
19389;DHT22;9830;41.876;23.474;2023-05-10T02:39:27;8.40;99.90
19389;DHT22;9830;41.876;23.474;2023-05-10T02:41:53;8.40;99.90
19389;DHT22;9830;41.876;23.474;2023-05-10T02:44:21;8.40;99.90
19389;DHT22;9830;41.876;23.474;2023-05-10T02:46:47;8.50;99.90
19389;DHT22;9830;41.876;23.474;2023-05-10T02:49:13;8.50;99.90
19389;DHT22;9830;41.876;23.474;2023-05-10T02:51:46;8.50;99.90
19389;DHT22;9830;41.876;23.474;2023-05-10T02:54:19;8.40;99.90
19389;DHT22;9830;41.876;23.474;2023-05-10T02:56:53;8.40;99.90
19389;DHT22;9830;41.876;23.474;2023-05-10T02:59:20;8.40;99.90
19389;DHT22;9830;41.876;23.474;2023-05-10T03:01:46;8.30;99.90
19389;DHT22;9830;41.876;23.474;2023-05-10T03:04:12;8.30;99.90
19389;DHT22;9830;41.876;23.474;2023-05-10T03:06:38;8.30;99.90
19389;DHT22;9830;41.876;23.474;2023-05-10T03:09:04;8.40;99.90
19389;DHT22;9830;41.876;23.474;2023-05-10T03:12:00;8.30;99.90
19389;DHT22;9830;41.876;23.474;2023-05-10T03:17:30;8.30;99.90
19389;DHT22;9830;41.876;23.474;2023-05-10T03:20:09;8.30;99.90
19389;DHT22;9830;41.876;23.474;2023-05-10T03:22:49;8.40;99.90
19389;DHT22;9830;41.876;23.474;2023-05-10T03:25:16;8.40;99.90
19389;DHT22;9830;41.876;23.474;2023-05-10T03:27:43;8.40;99.90
19389;DHT22;9830;41.876;23.474;2023-05-10T03:30:13;8.30;99.90
19389;DHT22;9830;41.876;23.474;2023-05-10T03:32:39;8.40;99.90
19389;DHT22;9830;41.876;23.474;2023-05-10T03:35:12;8.40;99.90
19389;DHT22;9830;41.876;23.474;2023-05-10T03:37:41;8.40;99.90
19389;DHT22;9830;41.876;23.474;2023-05-10T03:40:07;8.40;99.90
19389;DHT22;9830;41.876;23.474;2023-05-10T03:42:33;8.40;99.90
19389;DHT22;9830;41.876;23.474;2023-05-10T03:44:58;8.30;99.90
19389;DHT22;9830;41.876;23.474;2023-05-10T03:47:24;8.30;99.90
19389;DHT22;9830;41.876;23.474;2023-05-10T03:49:50;8.40;99.90
19389;DHT22;9830;41.876;23.474;2023-05-10T03:52:16;8.40;99.90
19389;DHT22;9830;41.876;23.474;2023-05-10T03:54:41;8.40;99.90
19389;DHT22;9830;41.876;23.474;2023-05-10T03:57:07;8.40;99.90
19389;DHT22;9830;41.876;23.474;2023-05-10T03:59:33;8.40;99.90
19389;DHT22;9830;41.876;23.474;2023-05-10T04:01:58;8.30;99.90
19389;DHT22;9830;41.876;23.474;2023-05-10T04:04:24;8.30;99.90
19389;DHT22;9830;41.876;23.474;2023-05-10T04:06:50;8.30;99.90
19389;DHT22;9830;41.876;23.474;2023-05-10T04:09:15;8.30;99.90
19389;DHT22;9830;41.876;23.474;2023-05-10T04:11:42;8.30;99.90
19389;DHT22;9830;41.876;23.474;2023-05-10T04:14:08;8.30;99.90
19389;DHT22;9830;41.876;23.474;2023-05-10T04:16:34;8.40;99.90
19389;DHT22;9830;41.876;23.474;2023-05-10T04:19:00;8.50;99.90
19389;DHT22;9830;41.876;23.474;2023-05-10T04:21:25;8.50;99.90
19389;DHT22;9830;41.876;23.474;2023-05-10T04:23:51;8.50;99.90
19389;DHT22;9830;41.876;23.474;2023-05-10T04:26:17;8.60;99.90
19389;DHT22;9830;41.876;23.474;2023-05-10T04:28:42;8.70;99.90
19389;DHT22;9830;41.876;23.474;2023-05-10T04:31:09;8.70;99.90
19389;DHT22;9830;41.876;23.474;2023-05-10T04:33:35;8.60;99.90
19389;DHT22;9830;41.876;23.474;2023-05-10T04:36:02;8.50;99.90
19389;DHT22;9830;41.876;23.474;2023-05-10T04:38:28;8.50;99.90
19389;DHT22;9830;41.876;23.474;2023-05-10T04:40:54;8.50;99.90
19389;DHT22;9830;41.876;23.474;2023-05-10T04:43:20;8.50;99.90
19389;DHT22;9830;41.876;23.474;2023-05-10T04:45:46;8.50;99.90
19389;DHT22;9830;41.876;23.474;2023-05-10T04:48:11;8.40;99.90
19389;DHT22;9830;41.876;23.474;2023-05-10T04:50:38;8.30;99.90
19389;DHT22;9830;41.876;23.474;2023-05-10T04:53:04;8.30;99.90
19389;DHT22;9830;41.876;23.474;2023-05-10T04:55:30;8.20;99.90
19389;DHT22;9830;41.876;23.474;2023-05-10T04:57:56;8.20;99.90
19389;DHT22;9830;41.876;23.474;2023-05-10T05:00:23;8.20;99.90
19389;DHT22;9830;41.876;23.474;2023-05-10T05:02:49;8.20;99.90
19389;DHT22;9830;41.876;23.474;2023-05-10T05:05:14;8.30;99.90
19389;DHT22;9830;41.876;23.474;2023-05-10T05:07:40;8.30;99.90
19389;DHT22;9830;41.876;23.474;2023-05-10T05:10:07;8.30;99.90
19389;DHT22;9830;41.876;23.474;2023-05-10T05:12:33;8.30;99.90
19389;DHT22;9830;41.876;23.474;2023-05-10T05:14:58;8.30;99.90
19389;DHT22;9830;41.876;23.474;2023-05-10T05:17:24;8.30;99.90
19389;DHT22;9830;41.876;23.474;2023-05-10T05:19:50;8.30;99.90
19389;DHT22;9830;41.876;23.474;2023-05-10T05:22:15;8.30;99.90
19389;DHT22;9830;41.876;23.474;2023-05-10T05:24:41;8.40;99.90
19389;DHT22;9830;41.876;23.474;2023-05-10T05:27:07;8.50;99.90
19389;DHT22;9830;41.876;23.474;2023-05-10T05:29:33;8.50;99.90
19389;DHT22;9830;41.876;23.474;2023-05-10T05:31:58;8.40;99.90
19389;DHT22;9830;41.876;23.474;2023-05-10T05:34:24;8.40;99.90
19389;DHT22;9830;41.876;23.474;2023-05-10T05:36:51;8.40;99.90
19389;DHT22;9830;41.876;23.474;2023-05-10T05:39:17;8.40;99.90
19389;DHT22;9830;41.876;23.474;2023-05-10T05:41:42;8.40;99.90
19389;DHT22;9830;41.876;23.474;2023-05-10T05:44:08;8.40;99.90
19389;DHT22;9830;41.876;23.474;2023-05-10T05:46:35;8.40;99.90
19389;DHT22;9830;41.876;23.474;2023-05-10T05:49:01;8.40;99.90
19389;DHT22;9830;41.876;23.474;2023-05-10T05:51:26;8.40;99.90
19389;DHT22;9830;41.876;23.474;2023-05-10T05:53:52;8.50;99.90
19389;DHT22;9830;41.876;23.474;2023-05-10T05:56:18;8.60;99.90
19389;DHT22;9830;41.876;23.474;2023-05-10T05:58:50;8.70;99.90
19389;DHT22;9830;41.876;23.474;2023-05-10T06:01:16;8.70;99.90
19389;DHT22;9830;41.876;23.474;2023-05-10T06:03:41;8.80;99.90
19389;DHT22;9830;41.876;23.474;2023-05-10T06:06:07;8.70;99.90
19389;DHT22;9830;41.876;23.474;2023-05-10T06:08:33;8.80;99.90
19389;DHT22;9830;41.876;23.474;2023-05-10T06:11:00;8.90;99.90
19389;DHT22;9830;41.876;23.474;2023-05-10T06:13:25;8.90;99.90
19389;DHT22;9830;41.876;23.474;2023-05-10T06:16:00;8.90;99.90
19389;DHT22;9830;41.876;23.474;2023-05-10T06:18:26;9.00;99.90
19389;DHT22;9830;41.876;23.474;2023-05-10T06:20:52;9.20;99.90
19389;DHT22;9830;41.876;23.474;2023-05-10T06:23:17;9.10;99.90
19389;DHT22;9830;41.876;23.474;2023-05-10T06:25:43;9.20;99.90
19389;DHT22;9830;41.876;23.474;2023-05-10T06:28:09;9.20;99.90
19389;DHT22;9830;41.876;23.474;2023-05-10T06:30:36;9.30;99.90
19389;DHT22;9830;41.876;23.474;2023-05-10T06:33:02;9.30;99.90
19389;DHT22;9830;41.876;23.474;2023-05-10T06:35:28;9.40;99.90
19389;DHT22;9830;41.876;23.474;2023-05-10T06:37:54;9.60;99.90
19389;DHT22;9830;41.876;23.474;2023-05-10T06:40:20;9.60;99.90
19389;DHT22;9830;41.876;23.474;2023-05-10T06:42:47;9.70;99.90
19389;DHT22;9830;41.876;23.474;2023-05-10T06:45:14;9.70;99.90
19389;DHT22;9830;41.876;23.474;2023-05-10T06:47:40;9.80;99.90
19389;DHT22;9830;41.876;23.474;2023-05-10T06:50:07;10.00;99.90
19389;DHT22;9830;41.876;23.474;2023-05-10T06:52:33;10.10;99.90
19389;DHT22;9830;41.876;23.474;2023-05-10T06:54:59;10.20;99.90
19389;DHT22;9830;41.876;23.474;2023-05-10T06:57:25;10.20;99.90
19389;DHT22;9830;41.876;23.474;2023-05-10T06:59:51;10.30;99.90
19389;DHT22;9830;41.876;23.474;2023-05-10T07:02:17;10.30;99.90
19389;DHT22;9830;41.876;23.474;2023-05-10T07:04:43;10.40;99.90
19389;DHT22;9830;41.876;23.474;2023-05-10T07:07:09;10.40;99.90
19389;DHT22;9830;41.876;23.474;2023-05-10T07:09:35;10.60;99.90
19389;DHT22;9830;41.876;23.474;2023-05-10T07:12:00;10.70;99.90
19389;DHT22;9830;41.876;23.474;2023-05-10T07:14:27;10.70;99.90
19389;DHT22;9830;41.876;23.474;2023-05-10T07:16:53;11.00;99.90
19389;DHT22;9830;41.876;23.474;2023-05-10T07:19:19;11.30;99.90
19389;DHT22;9830;41.876;23.474;2023-05-10T07:21:45;11.40;99.90
19389;DHT22;9830;41.876;23.474;2023-05-10T07:24:11;11.40;99.90
19389;DHT22;9830;41.876;23.474;2023-05-10T07:26:36;11.70;99.90
19389;DHT22;9830;41.876;23.474;2023-05-10T07:29:02;11.80;99.90
19389;DHT22;9830;41.876;23.474;2023-05-10T07:31:28;11.60;99.90
19389;DHT22;9830;41.876;23.474;2023-05-10T07:33:54;12.00;99.90
19389;DHT22;9830;41.876;23.474;2023-05-10T07:36:19;11.90;99.90
19389;DHT22;9830;41.876;23.474;2023-05-10T07:38:45;11.90;99.90
19389;DHT22;9830;41.876;23.474;2023-05-10T07:41:11;11.90;99.90
19389;DHT22;9830;41.876;23.474;2023-05-10T07:43:37;12.10;99.90
19389;DHT22;9830;41.876;23.474;2023-05-10T07:46:03;12.30;99.90
19389;DHT22;9830;41.876;23.474;2023-05-10T07:48:29;12.50;99.90
19389;DHT22;9830;41.876;23.474;2023-05-10T07:50:54;12.90;99.90
19389;DHT22;9830;41.876;23.474;2023-05-10T07:53:20;13.60;99.90
19389;DHT22;9830;41.876;23.474;2023-05-10T07:55:58;13.60;99.90
19389;DHT22;9830;41.876;23.474;2023-05-10T07:58:25;13.70;99.90
19389;DHT22;9830;41.876;23.474;2023-05-10T08:00:51;13.60;99.90
19389;DHT22;9830;41.876;23.474;2023-05-10T08:03:16;13.30;99.90
19389;DHT22;9830;41.876;23.474;2023-05-10T08:05:42;13.50;99.90
19389;DHT22;9830;41.876;23.474;2023-05-10T08:08:08;13.70;99.90
19389;DHT22;9830;41.876;23.474;2023-05-10T08:10:34;13.80;99.90
19389;DHT22;9830;41.876;23.474;2023-05-10T08:12:59;14.00;99.90
19389;DHT22;9830;41.876;23.474;2023-05-10T08:15:25;13.80;99.90
19389;DHT22;9830;41.876;23.474;2023-05-10T08:17:54;13.70;99.90
19389;DHT22;9830;41.876;23.474;2023-05-10T08:20:19;13.60;99.90
19389;DHT22;9830;41.876;23.474;2023-05-10T08:22:46;13.90;99.90
19389;DHT22;9830;41.876;23.474;2023-05-10T08:25:12;14.70;99.90
19389;DHT22;9830;41.876;23.474;2023-05-10T08:27:37;14.80;99.90
19389;DHT22;9830;41.876;23.474;2023-05-10T08:30:03;15.10;99.90
19389;DHT22;9830;41.876;23.474;2023-05-10T08:32:29;14.80;99.90
19389;DHT22;9830;41.876;23.474;2023-05-10T08:34:55;14.50;99.90
19389;DHT22;9830;41.876;23.474;2023-05-10T08:37:23;14.60;99.90
19389;DHT22;9830;41.876;23.474;2023-05-10T08:39:48;15.00;99.90
19389;DHT22;9830;41.876;23.474;2023-05-10T08:42:16;15.10;99.90
19389;DHT22;9830;41.876;23.474;2023-05-10T08:44:45;15.70;99.90
19389;DHT22;9830;41.876;23.474;2023-05-10T08:47:15;15.40;99.90
19389;DHT22;9830;41.876;23.474;2023-05-10T08:49:41;15.00;99.90
19389;DHT22;9830;41.876;23.474;2023-05-10T08:52:11;15.20;99.90
19389;DHT22;9830;41.876;23.474;2023-05-10T08:54:38;15.00;99.90
19389;DHT22;9830;41.876;23.474;2023-05-10T08:57:04;15.00;99.90
19389;DHT22;9830;41.876;23.474;2023-05-10T08:59:30;15.40;99.90
19389;DHT22;9830;41.876;23.474;2023-05-10T09:01:59;15.80;99.90
19389;DHT22;9830;41.876;23.474;2023-05-10T09:04:25;15.60;99.90
19389;DHT22;9830;41.876;23.474;2023-05-10T09:06:51;15.40;99.90
19389;DHT22;9830;41.876;23.474;2023-05-10T09:09:17;15.30;99.90
19389;DHT22;9830;41.876;23.474;2023-05-10T09:11:44;15.50;99.90
19389;DHT22;9830;41.876;23.474;2023-05-10T09:14:12;16.00;99.90
19389;DHT22;9830;41.876;23.474;2023-05-10T09:16:39;16.20;99.90
19389;DHT22;9830;41.876;23.474;2023-05-10T09:19:05;16.20;98.60
19389;DHT22;9830;41.876;23.474;2023-05-10T09:21:32;16.10;99.90
19389;DHT22;9830;41.876;23.474;2023-05-10T09:24:04;16.40;99.90
19389;DHT22;9830;41.876;23.474;2023-05-10T09:26:30;16.30;99.90
19389;DHT22;9830;41.876;23.474;2023-05-10T09:28:57;16.00;99.90
19389;DHT22;9830;41.876;23.474;2023-05-10T09:31:24;15.80;99.70
19389;DHT22;9830;41.876;23.474;2023-05-10T09:33:53;15.20;99.90
19389;DHT22;9830;41.876;23.474;2023-05-10T09:36:18;15.30;99.90
19389;DHT22;9830;41.876;23.474;2023-05-10T09:38:49;15.20;99.90
19389;DHT22;9830;41.876;23.474;2023-05-10T09:41:19;15.20;99.90
19389;DHT22;9830;41.876;23.474;2023-05-10T09:43:46;15.20;99.90
19389;DHT22;9830;41.876;23.474;2023-05-10T09:46:12;14.90;99.90
19389;DHT22;9830;41.876;23.474;2023-05-10T09:48:42;14.80;99.90
19389;DHT22;9830;41.876;23.474;2023-05-10T09:51:08;14.60;99.90
19389;DHT22;9830;41.876;23.474;2023-05-10T09:53:34;14.40;99.90
19389;DHT22;9830;41.876;23.474;2023-05-10T09:56:00;14.00;99.90
19389;DHT22;9830;41.876;23.474;2023-05-10T09:58:25;14.00;99.90
19389;DHT22;9830;41.876;23.474;2023-05-10T10:00:51;13.90;99.90
19389;DHT22;9830;41.876;23.474;2023-05-10T10:03:19;14.40;99.90
19389;DHT22;9830;41.876;23.474;2023-05-10T10:05:47;14.50;99.90
19389;DHT22;9830;41.876;23.474;2023-05-10T10:08:13;14.30;99.90
19389;DHT22;9830;41.876;23.474;2023-05-10T10:10:39;14.30;99.90
19389;DHT22;9830;41.876;23.474;2023-05-10T10:13:06;14.10;99.90
19389;DHT22;9830;41.876;23.474;2023-05-10T10:15:33;13.90;99.90
19389;DHT22;9830;41.876;23.474;2023-05-10T10:18:00;13.70;99.90
19389;DHT22;9830;41.876;23.474;2023-05-10T10:20:26;13.90;99.90
19389;DHT22;9830;41.876;23.474;2023-05-10T10:22:52;13.90;99.90
19389;DHT22;9830;41.876;23.474;2023-05-10T10:25:19;13.80;99.90
19389;DHT22;9830;41.876;23.474;2023-05-10T10:33:51;13.70;99.90
19389;DHT22;9830;41.876;23.474;2023-05-10T10:36:21;13.50;99.90
19389;DHT22;9830;41.876;23.474;2023-05-10T11:45:59;13.40;99.90
19389;DHT22;9830;41.876;23.474;2023-05-10T11:48:25;14.80;99.90
19389;DHT22;9830;41.876;23.474;2023-05-10T11:50:51;15.60;99.90
19389;DHT22;9830;41.876;23.474;2023-05-10T11:53:19;15.80;99.90
19389;DHT22;9830;41.876;23.474;2023-05-10T11:55:45;15.30;99.90
19389;DHT22;9830;41.876;23.474;2023-05-10T11:58:12;15.40;99.90
19389;DHT22;9830;41.876;23.474;2023-05-10T12:00:37;15.40;99.90
19389;DHT22;9830;41.876;23.474;2023-05-10T12:03:03;15.40;99.90
19389;DHT22;9830;41.876;23.474;2023-05-10T12:05:32;15.30;99.90
19389;DHT22;9830;41.876;23.474;2023-05-10T12:08:15;14.90;99.90
19389;DHT22;9830;41.876;23.474;2023-05-10T12:10:41;15.30;99.90
19389;DHT22;9830;41.876;23.474;2023-05-10T12:13:14;15.60;99.90
19389;DHT22;9830;41.876;23.474;2023-05-10T12:15:41;15.60;99.90
19389;DHT22;9830;41.876;23.474;2023-05-10T12:18:11;15.40;99.90
19389;DHT22;9830;41.876;23.474;2023-05-10T12:20:38;15.20;99.90
19389;DHT22;9830;41.876;23.474;2023-05-10T12:23:04;15.10;99.90
19389;DHT22;9830;41.876;23.474;2023-05-10T12:25:35;14.90;99.90
19389;DHT22;9830;41.876;23.474;2023-05-10T12:28:04;14.90;99.90
19389;DHT22;9830;41.876;23.474;2023-05-10T12:30:32;15.40;99.90
19389;DHT22;9830;41.876;23.474;2023-05-10T12:33:07;15.40;99.90
19389;DHT22;9830;41.876;23.474;2023-05-10T12:35:33;15.60;99.90
19389;DHT22;9830;41.876;23.474;2023-05-10T12:41:02;15.80;99.90
19389;DHT22;9830;41.876;23.474;2023-05-10T12:43:28;16.10;99.90
19389;DHT22;9830;41.876;23.474;2023-05-10T12:45:54;15.90;99.90
19389;DHT22;9830;41.876;23.474;2023-05-10T12:48:20;15.60;99.90
19389;DHT22;9830;41.876;23.474;2023-05-10T12:50:46;15.30;99.90
19389;DHT22;9830;41.876;23.474;2023-05-10T12:53:16;15.30;99.90
19389;DHT22;9830;41.876;23.474;2023-05-10T12:55:43;15.30;99.90
19389;DHT22;9830;41.876;23.474;2023-05-10T12:58:09;14.80;99.90
19389;DHT22;9830;41.876;23.474;2023-05-10T13:00:36;14.70;99.90
19389;DHT22;9830;41.876;23.474;2023-05-10T13:03:04;14.40;99.90
19389;DHT22;9830;41.876;23.474;2023-05-10T13:05:34;14.40;99.90
19389;DHT22;9830;41.876;23.474;2023-05-10T13:07:59;14.20;99.90
19389;DHT22;9830;41.876;23.474;2023-05-10T13:10:25;13.90;99.90
19389;DHT22;9830;41.876;23.474;2023-05-10T13:12:52;14.00;99.90
19389;DHT22;9830;41.876;23.474;2023-05-10T13:15:18;13.90;99.90
19389;DHT22;9830;41.876;23.474;2023-05-10T13:17:43;13.70;99.90
19389;DHT22;9830;41.876;23.474;2023-05-10T13:20:11;13.70;99.90
19389;DHT22;9830;41.876;23.474;2023-05-10T13:22:36;13.60;99.90
19389;DHT22;9830;41.876;23.474;2023-05-10T13:25:02;13.60;99.90
19389;DHT22;9830;41.876;23.474;2023-05-10T13:27:28;13.70;99.90
19389;DHT22;9830;41.876;23.474;2023-05-10T13:29:54;13.40;99.90
19389;DHT22;9830;41.876;23.474;2023-05-10T13:32:20;13.80;99.90
19389;DHT22;9830;41.876;23.474;2023-05-10T13:34:46;14.00;99.90
19389;DHT22;9830;41.876;23.474;2023-05-10T13:37:12;13.80;99.90
19389;DHT22;9830;41.876;23.474;2023-05-10T13:39:38;13.70;99.90
19389;DHT22;9830;41.876;23.474;2023-05-10T13:42:06;13.60;99.90
19389;DHT22;9830;41.876;23.474;2023-05-10T13:44:32;13.50;99.90
19389;DHT22;9830;41.876;23.474;2023-05-10T13:46:59;13.40;99.90
19389;DHT22;9830;41.876;23.474;2023-05-10T13:49:25;13.20;99.90
19389;DHT22;9830;41.876;23.474;2023-05-10T13:51:51;13.20;99.90
19389;DHT22;9830;41.876;23.474;2023-05-10T13:54:17;13.00;99.90
19389;DHT22;9830;41.876;23.474;2023-05-10T13:56:45;12.70;99.90
19389;DHT22;9830;41.876;23.474;2023-05-10T13:59:12;12.50;99.90
19389;DHT22;9830;41.876;23.474;2023-05-10T14:01:42;12.60;99.90
19389;DHT22;9830;41.876;23.474;2023-05-10T14:04:09;12.80;99.90
19389;DHT22;9830;41.876;23.474;2023-05-10T14:06:36;12.90;99.90
19389;DHT22;9830;41.876;23.474;2023-05-10T14:09:03;12.90;99.90
19389;DHT22;9830;41.876;23.474;2023-05-10T14:11:28;12.80;99.90
19389;DHT22;9830;41.876;23.474;2023-05-10T14:13:54;12.80;99.90
19389;DHT22;9830;41.876;23.474;2023-05-10T14:16:20;12.70;99.90
19389;DHT22;9830;41.876;23.474;2023-05-10T14:18:46;12.60;99.90
19389;DHT22;9830;41.876;23.474;2023-05-10T14:21:12;12.50;99.90
19389;DHT22;9830;41.876;23.474;2023-05-10T14:23:38;12.50;99.90
19389;DHT22;9830;41.876;23.474;2023-05-10T14:26:04;12.50;99.90
19389;DHT22;9830;41.876;23.474;2023-05-10T14:28:30;12.40;99.90
19389;DHT22;9830;41.876;23.474;2023-05-10T14:30:56;12.40;99.90
19389;DHT22;9830;41.876;23.474;2023-05-10T14:33:21;12.40;99.90
19389;DHT22;9830;41.876;23.474;2023-05-10T14:35:48;12.30;99.90
19389;DHT22;9830;41.876;23.474;2023-05-10T14:38:14;12.40;99.90
19389;DHT22;9830;41.876;23.474;2023-05-10T14:40:39;12.40;99.90
19389;DHT22;9830;41.876;23.474;2023-05-10T14:43:05;12.30;99.90
19389;DHT22;9830;41.876;23.474;2023-05-10T14:45:31;12.30;99.90
19389;DHT22;9830;41.876;23.474;2023-05-10T14:47:57;12.30;99.90
19389;DHT22;9830;41.876;23.474;2023-05-10T14:50:23;12.20;99.90
19389;DHT22;9830;41.876;23.474;2023-05-10T14:52:49;12.20;99.90
19389;DHT22;9830;41.876;23.474;2023-05-10T14:55:15;12.10;99.90
19389;DHT22;9830;41.876;23.474;2023-05-10T14:57:41;12.10;99.90
19389;DHT22;9830;41.876;23.474;2023-05-10T15:00:07;12.00;99.90
19389;DHT22;9830;41.876;23.474;2023-05-10T15:02:33;12.00;99.90
19389;DHT22;9830;41.876;23.474;2023-05-10T15:04:59;12.00;99.90
19389;DHT22;9830;41.876;23.474;2023-05-10T15:07:24;12.10;99.90
19389;DHT22;9830;41.876;23.474;2023-05-10T15:09:51;12.10;99.90
19389;DHT22;9830;41.876;23.474;2023-05-10T15:12:18;12.00;99.90
19389;DHT22;9830;41.876;23.474;2023-05-10T15:14:43;12.00;99.90
19389;DHT22;9830;41.876;23.474;2023-05-10T15:17:09;11.80;99.90
19389;DHT22;9830;41.876;23.474;2023-05-10T15:19:35;11.80;99.90
19389;DHT22;9830;41.876;23.474;2023-05-10T15:22:01;11.80;99.90
19389;DHT22;9830;41.876;23.474;2023-05-10T15:24:28;11.60;99.90
19389;DHT22;9830;41.876;23.474;2023-05-10T15:26:53;11.40;99.90
19389;DHT22;9830;41.876;23.474;2023-05-10T15:29:19;11.40;99.90
19389;DHT22;9830;41.876;23.474;2023-05-10T15:31:49;11.30;99.90
19389;DHT22;9830;41.876;23.474;2023-05-10T15:34:15;11.30;99.90
19389;DHT22;9830;41.876;23.474;2023-05-10T15:36:41;11.30;99.90
19389;DHT22;9830;41.876;23.474;2023-05-10T15:39:07;11.20;99.90
19389;DHT22;9830;41.876;23.474;2023-05-10T15:41:34;11.20;99.90
19389;DHT22;9830;41.876;23.474;2023-05-10T15:44:00;11.20;99.90
19389;DHT22;9830;41.876;23.474;2023-05-10T15:46:27;11.10;99.90
19389;DHT22;9830;41.876;23.474;2023-05-10T15:48:53;11.10;99.90
19389;DHT22;9830;41.876;23.474;2023-05-10T15:51:18;11.00;99.90
19389;DHT22;9830;41.876;23.474;2023-05-10T15:53:45;10.90;99.90
19389;DHT22;9830;41.876;23.474;2023-05-10T15:56:10;10.80;99.90
19389;DHT22;9830;41.876;23.474;2023-05-10T15:58:37;10.80;99.90
19389;DHT22;9830;41.876;23.474;2023-05-10T16:01:03;10.80;99.90
19389;DHT22;9830;41.876;23.474;2023-05-10T16:03:32;10.90;99.90
19389;DHT22;9830;41.876;23.474;2023-05-10T16:05:58;10.80;99.90
19389;DHT22;9830;41.876;23.474;2023-05-10T16:08:24;10.70;99.90
19389;DHT22;9830;41.876;23.474;2023-05-10T16:10:50;10.80;99.90
19389;DHT22;9830;41.876;23.474;2023-05-10T16:13:16;10.70;99.90
19389;DHT22;9830;41.876;23.474;2023-05-10T16:15:42;10.70;99.90
19389;DHT22;9830;41.876;23.474;2023-05-10T16:18:08;10.60;99.90
19389;DHT22;9830;41.876;23.474;2023-05-10T16:20:34;10.60;99.90
19389;DHT22;9830;41.876;23.474;2023-05-10T16:23:02;10.70;99.90
19389;DHT22;9830;41.876;23.474;2023-05-10T16:25:28;10.70;99.90
19389;DHT22;9830;41.876;23.474;2023-05-10T16:27:54;10.60;99.90
19389;DHT22;9830;41.876;23.474;2023-05-10T16:30:20;10.60;99.90
19389;DHT22;9830;41.876;23.474;2023-05-10T16:32:45;10.60;99.90
19389;DHT22;9830;41.876;23.474;2023-05-10T16:35:11;10.50;99.90
19389;DHT22;9830;41.876;23.474;2023-05-10T16:37:37;10.40;99.90
19389;DHT22;9830;41.876;23.474;2023-05-10T16:40:03;10.40;99.90
19389;DHT22;9830;41.876;23.474;2023-05-10T16:42:29;10.30;99.90
19389;DHT22;9830;41.876;23.474;2023-05-10T16:44:54;10.30;99.90
19389;DHT22;9830;41.876;23.474;2023-05-10T16:47:20;10.40;99.90
19389;DHT22;9830;41.876;23.474;2023-05-10T16:49:46;10.30;99.90
19389;DHT22;9830;41.876;23.474;2023-05-10T16:52:11;10.30;99.90
19389;DHT22;9830;41.876;23.474;2023-05-10T16:54:38;10.30;99.90
19389;DHT22;9830;41.876;23.474;2023-05-10T16:57:03;10.30;99.90
19389;DHT22;9830;41.876;23.474;2023-05-10T16:59:29;10.30;99.90
19389;DHT22;9830;41.876;23.474;2023-05-10T17:01:55;10.20;99.90
19389;DHT22;9830;41.876;23.474;2023-05-10T17:04:20;10.10;99.90
19389;DHT22;9830;41.876;23.474;2023-05-10T17:06:46;10.10;99.90